Pagina principală
METAR-TAF:

METAR-TAF

Aeroporturi :

Big Spring McMahon-Wrinkle Airport

Big Spring, Texas, Statele Unite ale Americii

Latitudine: 32-12N, longitudine: 101-31W, elevație: 784 m

Observații meteo curente

Raportul a fost făcut în urmă cu 44 de minute, la 22:35 UTC
Vânt 7 kt de la Sud/Sud-est cu rafale de până la 18 kt, variabil între Est/Sud-est și Sud
Temperatură 35°C
Umiditate 27%
Presiune 1017 hPa
Vizibilitate: 16.1 km
Nori împrăștiați la o înălțime de 8500 picior

METAR: KBPG 222235Z AUTO 16007G18KT 120V180 10SM SCT085 35/13 A3003 RMK AO2 T03460129

Ora: 18:19 (23:19 UTC)


TAF: lipsă

Observații și prognoze meteo pentru peste 4.000 de aeroporturi (rapoarte METAR și TAF).

Stațiile disponibile sunt reprezentate pe hartă prin puncte galbene și roșii.

Țineți indicatorul mouse-ului pe punctul dorit pentru a vedea denumirea stației.

Apoi, faceți clic pentru a vedea observațiile și prognozele meteorologice.

Pentru a schimba harta: Pentru mărire, faceți clic pe butoanele verzi cu cruce neagră; pentru micșorare, pe butonul verde cu o liniuță; pentru hărți învecinate, pe săgețile verzi.


METAR-TAF: